Sevilla, España

6:50 PM CET en Octubre 31, 2014 (GMT +0100)
San Pablo | Change Station
CLOSE
Current Station
Aeropuerto
Location: Sevilla,
Altura: 102 ft
Estaciones meteorológicas cercanas

Alt 102 ft 37.42 °N, 5.89 °W | Updated 20 minutes ago

Clear
Despejado
75 ° F
Sensación térmica 75 ° F
N
2
Viento Variable Viento desde OSO

Hoy
Alta -- | Baja -- ° F
--% Posibilidad de precipitaciones
Ayer
Alta -- | Baja -- ° F
Precip. -- pul
7:47 AM 6:26 PM
Cuarto creciente, 57% visible
Presión 30.09 pul
Visibilidad -9999.0 Millas
Nubes
Punto de rocío 50 ° F
Humedad 41%
Precipitaciones 0.00 pul
Espesor de la nieve No disponible.
UV No disponible.
Polen No disponible.
Calidad del aire No disponible.
Flu Activity No disponible.
METAR LEZL 311730Z 25002KT CAVOK 24/10 Q1019 NOSIG

More Conditions Fewer Conditions

Presión 30.09 pul
Visibilidad -9999.0 Millas
Nubes
Punto de rocío 50 ° F
Humedad 41%
Precipitaciones 0.00 pul
Espesor de la nieve No disponible.
UV No disponible.
Polen No disponible.
Calidad del aire No disponible.
Flu Activity No disponible.
METAR LEZL 311730Z 25002KT CAVOK 24/10 Q1019 NOSIG

More Conditions Fewer Conditions

10-Day Weather Forecast

Almanac

Astronomía

Oct. 31, 2014 Salida Puesta
Hora real
Crepúsculo civil
Crepúsculo náutico
Crepúsculo astronómico
Luna
Horas de luz
Horas de luz
Tomorrow will be .
, % of the Moon is Illuminated

Extremos de hoy

Máximos del país Bajas del país

Community

WunderPhotos

Upload Photos

1,766,673 ¡fotos cargadas!

WunderBlogs® & News

Nearby

Calidad del aire

  Calidad del aire Índice AQ Contaminante
Not available.

Grosos de nieve

Estación Profundido Altura

Actividad de terremotos

Ciudad Distance Mag. Tiempo y dato
Magnitud mínima muestra es 2,5.

Temperaturas de aguas costeras

Lugar Temperatura

Estaciones meteorológicas cercanas